Lothian, MD

8:14 AM EST on February 11, 2016 (GMT -0500)
APRSWXNET | | Change Station
CLOSE
Current Station
Personal Weather Station
Location: Lothian, MD
Elevation: 98 ft
Nearby Weather Stations

Elev 98 ft 38.81 °N, 76.68 °W | Updated 19 minutes ago

Clear
Clear
21 °F
Feels Like 21 °F
N
0
Wind Variable Wind from NNE
Gusts 2.0 mph

Today
High -- | Low -- °F
--% Chance of Precip.
Yesterday
High -- | Low -- °F
Precip. -- in
Pressure 30.10 in
Visibility 10.0 miles
Clouds Few 5000 ft
Windchill 21 °F
Dew Point 7 °F
Humidity 53%
Rainfall in
Snow Depth Not available.
7:03 AM 5:39 PM
Waxing Crescent, 12% visible
METAR KADW 111258Z AUTO 28010G19KT 10SM FEW050 M06/M16 A3007 RMK AO2 SLP193 T10601165
Pressure 30.10 in
Visibility 10.0 miles
Clouds Few 5000 ft
Windchill 21 °F
Dew Point 7 °F
Humidity 53%
Rainfall in
Snow Depth Not available.
7:03 AM 5:39 PM
Waxing Crescent, 12% visible
METAR KADW 111258Z AUTO 28010G19KT 10SM FEW050 M06/M16 A3007 RMK AO2 SLP193 T10601165

10-Day Weather Forecast

Almanac

Astronomy

Feb. 11, 2016 Rise Set
Actual Time
Civil Twilight
Nautical Twilight
Astronomical Twilight
Moon
Length of Visible Light
Length of Day
Tomorrow will be .
, % of the Moon is Illuminated

Today's Extremes

State Highs State Lows

Community

WunderPhotos

Upload Photos

1,892,040 photos uploaded!

WunderBlog® & News

Nearby

Air Quality

  Air Quality AQ Index Pollutant
Not available.

Snow Depth

Station Depth Elevation

Earthquake Activity

City Distance Mag. Time & Date
Minimum magnitude displayed is 2.5.

Coastal Water Temperatures

Place Temperature

Stations

Nearby Weather Stations

Station Location Temp. Windchill Dew Point Humidity Wind Precip. Elev Updated Type
                   

Watches & Warnings

There are currently no watches in effect.